createdAt,value
2022-08-24T00:00:10.526Z,1.40
2022-08-24T00:02:42.058Z,1.33
2022-08-24T00:05:14.992Z,1.60
2022-08-24T00:07:47.161Z,1.30
2022-08-24T00:10:20.425Z,1.20
2022-08-24T00:12:52.346Z,1.20
2022-08-24T00:15:24.689Z,1.40
2022-08-24T00:17:55.991Z,1.20
2022-08-24T00:20:27.552Z,1.87
2022-08-24T00:22:58.993Z,1.30
2022-08-24T00:25:31.346Z,1.73
2022-08-24T00:28:04.756Z,1.10
2022-08-24T00:30:36.292Z,1.80
2022-08-24T00:33:08.232Z,1.70
2022-08-24T00:35:39.739Z,1.30
2022-08-24T00:38:11.610Z,1.17
2022-08-24T00:40:46.350Z,1.70
2022-08-24T00:43:23.960Z,1.47
2022-08-24T00:46:19.910Z,1.70
2022-08-24T00:49:01.444Z,1.67
2022-08-24T00:51:41.232Z,1.50
2022-08-24T00:54:15.338Z,1.50
2022-08-24T00:56:54.073Z,1.30
2022-08-24T00:59:32.625Z,1.70
2022-08-24T01:02:15.586Z,1.50
2022-08-24T01:05:09.004Z,1.43
2022-08-24T01:07:40.745Z,1.30
2022-08-24T01:10:14.919Z,1.20
2022-08-24T01:13:00.348Z,1.20
2022-08-24T01:18:34.581Z,1.27
2022-08-24T01:21:16.364Z,1.30
2022-08-24T01:23:51.226Z,1.70
2022-08-24T01:26:39.820Z,1.30
2022-08-24T01:29:18.451Z,1.60
2022-08-24T01:31:51.639Z,1.37
2022-08-24T01:34:23.011Z,1.63
2022-08-24T01:36:56.652Z,1.87
2022-08-24T01:39:39.062Z,1.50
2022-08-24T01:42:10.975Z,1.80
2022-08-24T01:44:44.114Z,1.50
2022-08-24T01:47:16.834Z,1.67
2022-08-24T01:49:49.457Z,1.50
2022-08-24T01:52:25.408Z,1.70
2022-08-24T01:57:27.993Z,1.40
2022-08-24T01:59:59.386Z,1.33
2022-08-24T02:02:31.740Z,1.30
2022-08-24T02:05:04.149Z,1.37
2022-08-24T02:07:35.708Z,1.97
2022-08-24T02:10:09.561Z,1.50
2022-08-24T02:12:42.541Z,1.30
2022-08-24T02:15:14.056Z,1.77
2022-08-24T02:17:45.471Z,1.53
2022-08-24T02:20:16.887Z,1.60
2022-08-24T02:22:50.353Z,1.30
2022-08-24T02:25:21.885Z,1.40
2022-08-24T02:27:53.206Z,1.50
2022-08-24T02:30:24.506Z,1.80
2022-08-24T02:32:56.123Z,1.33
2022-08-24T02:35:29.524Z,1.70
2022-08-24T02:38:01.047Z,1.60
2022-08-24T02:40:32.457Z,2.10
2022-08-24T02:43:04.658Z,1.70
2022-08-24T02:45:41.355Z,1.70
2022-08-24T02:48:13.300Z,2.10
2022-08-24T02:50:47.442Z,1.67
2022-08-24T02:53:20.711Z,1.50
2022-08-24T02:55:52.020Z,1.63
2022-08-24T02:58:23.334Z,1.63
2022-08-24T03:00:54.713Z,1.80
2022-08-24T03:03:26.068Z,1.70
2022-08-24T03:05:57.380Z,1.33
2022-08-24T03:08:29.299Z,1.57
2022-08-24T03:11:00.795Z,1.73
2022-08-24T03:13:32.677Z,1.97
2022-08-24T03:16:05.342Z,1.67
2022-08-24T03:18:37.057Z,1.57
2022-08-24T03:21:08.630Z,1.50
2022-08-24T03:23:40.187Z,1.60
2022-08-24T03:26:12.388Z,1.70
2022-08-24T03:28:45.093Z,1.70
2022-08-24T03:31:17.382Z,2.00
2022-08-24T03:33:50.102Z,1.70
2022-08-24T03:36:21.625Z,1.60
2022-08-24T03:38:53.156Z,2.03
2022-08-24T03:41:24.534Z,1.60
2022-08-24T03:43:56.783Z,2.10
2022-08-24T03:46:28.858Z,1.50
2022-08-24T03:49:00.234Z,1.53
2022-08-24T03:51:31.719Z,1.60
2022-08-24T03:54:05.288Z,2.13
2022-08-24T03:56:37.036Z,2.03
2022-08-24T03:59:10.540Z,1.77
2022-08-24T04:01:41.891Z,1.83
2022-08-24T04:04:13.303Z,1.97
2022-08-24T04:06:46.731Z,2.23
2022-08-24T04:09:18.687Z,2.23
2022-08-24T04:11:52.545Z,1.90
2022-08-24T04:14:27.295Z,1.83
2022-08-24T04:16:59.176Z,1.95
2022-08-24T04:19:30.611Z,1.93
2022-08-24T04:22:01.934Z,2.10
2022-08-24T04:24:33.269Z,2.00
2022-08-24T04:27:04.838Z,2.37
2022-08-24T04:29:36.146Z,2.03
2022-08-24T04:32:07.652Z,2.30
2022-08-24T04:34:39.273Z,2.20
2022-08-24T04:37:11.670Z,2.23
2022-08-24T04:39:44.487Z,2.33
2022-08-24T04:42:17.697Z,2.10
2022-08-24T04:44:50.352Z,1.87
2022-08-24T04:47:21.640Z,2.50
2022-08-24T04:49:52.970Z,1.90
2022-08-24T04:52:24.414Z,2.10
2022-08-24T04:54:55.796Z,1.77
2022-08-24T04:57:27.086Z,2.00
2022-08-24T04:59:59.115Z,2.03
2022-08-24T05:02:32.227Z,2.03
2022-08-24T05:05:08.616Z,2.40
2022-08-24T05:10:11.410Z,2.20
2022-08-24T05:12:43.409Z,2.40
2022-08-24T05:15:16.240Z,2.17
2022-08-24T05:17:51.218Z,2.30
2022-08-24T05:20:22.945Z,2.00
2022-08-24T05:22:56.034Z,2.10
2022-08-24T05:25:28.742Z,1.90
2022-08-24T05:28:00.670Z,1.80
2022-08-24T05:30:32.332Z,2.23
2022-08-24T05:33:03.912Z,2.57
2022-08-24T05:35:39.736Z,1.93
2022-08-24T05:38:15.273Z,2.60
2022-08-24T05:40:46.601Z,2.13
2022-08-24T05:43:17.887Z,2.60
2022-08-24T05:45:49.276Z,2.93
2022-08-24T05:48:20.974Z,2.00
2022-08-24T05:50:53.986Z,2.60
2022-08-24T05:53:25.317Z,2.20
2022-08-24T05:55:56.738Z,2.00
2022-08-24T05:58:31.196Z,2.17
2022-08-24T06:01:14.856Z,2.43
2022-08-24T06:03:47.257Z,2.60
2022-08-24T06:06:20.499Z,2.13
2022-08-24T06:08:55.129Z,2.13
2022-08-24T06:11:32.967Z,2.00
2022-08-24T06:14:09.349Z,1.98
2022-08-24T06:16:46.326Z,2.53
2022-08-24T06:19:19.442Z,2.20
2022-08-24T06:21:52.520Z,2.35
2022-08-24T06:24:44.525Z,1.80
2022-08-24T06:27:22.885Z,2.47
2022-08-24T06:29:55.894Z,2.28
2022-08-24T06:32:27.329Z,2.13
2022-08-24T06:34:58.813Z,2.45
2022-08-24T06:37:30.369Z,2.00
2022-08-24T06:40:03.146Z,1.92
2022-08-24T06:42:34.597Z,2.10
2022-08-24T06:45:06.454Z,2.83
2022-08-24T06:47:37.873Z,2.55
2022-08-24T06:50:09.661Z,2.00
2022-08-24T06:52:40.976Z,1.95
2022-08-24T06:55:14.633Z,2.20
2022-08-24T06:57:49.196Z,2.25
2022-08-24T07:00:23.875Z,2.00
2022-08-24T07:02:55.217Z,2.85
2022-08-24T07:05:27.201Z,2.15
2022-08-24T07:07:59.808Z,2.45
2022-08-24T07:10:31.334Z,2.00
2022-08-24T07:13:03.872Z,2.00
2022-08-24T07:15:35.565Z,2.20
2022-08-24T07:18:10.304Z,2.63
2022-08-24T07:20:42.654Z,2.13
2022-08-24T07:23:14.864Z,2.00
2022-08-24T07:25:49.568Z,2.15
2022-08-24T07:31:03.779Z,2.17
2022-08-24T07:33:36.040Z,2.03
2022-08-24T07:36:07.445Z,1.85
2022-08-24T07:38:39.866Z,2.10
2022-08-24T07:41:37.843Z,2.33
2022-08-24T07:44:02.644Z,2.00
2022-08-24T07:46:34.132Z,2.00
2022-08-24T07:49:12.602Z,2.50
2022-08-24T07:51:53.316Z,1.90
2022-08-24T07:54:24.629Z,1.88
2022-08-24T07:56:56.453Z,1.80
2022-08-24T07:59:27.768Z,1.80
2022-08-24T08:01:59.711Z,2.58
2022-08-24T08:04:32.170Z,2.17
2022-08-24T08:07:03.502Z,1.85
2022-08-24T08:09:37.770Z,1.73
2022-08-24T08:12:09.309Z,2.00
2022-08-24T08:14:40.610Z,1.83
2022-08-24T08:17:13.224Z,2.35
2022-08-24T08:19:44.626Z,1.92
2022-08-24T08:22:34.536Z,1.90
2022-08-24T08:25:07.972Z,2.15
2022-08-24T08:27:39.410Z,2.13
2022-08-24T08:30:11.176Z,1.83
2022-08-24T08:32:42.668Z,2.25
2022-08-24T08:35:14.236Z,2.22
2022-08-24T08:37:46.139Z,2.53
2022-08-24T08:40:55.249Z,2.08
2022-08-24T08:43:44.942Z,2.45
2022-08-24T08:46:30.260Z,2.10
2022-08-24T08:49:48.061Z,1.85
2022-08-24T08:52:48.543Z,2.42
2022-08-24T08:55:32.034Z,1.60
2022-08-24T08:58:28.344Z,2.03
2022-08-24T09:01:41.102Z,2.00
2022-08-24T09:04:42.554Z,1.80
2022-08-24T09:07:28.935Z,2.22
2022-08-24T09:10:17.506Z,1.52
2022-08-24T09:13:38.213Z,1.63
2022-08-24T09:16:46.135Z,1.70
2022-08-24T09:19:23.286Z,1.48
2022-08-24T09:22:20.026Z,1.65
2022-08-24T09:24:54.085Z,1.90
2022-08-24T09:27:51.788Z,1.70
2022-08-24T09:30:26.691Z,1.58
2022-08-24T09:33:04.322Z,1.63
2022-08-24T09:36:07.842Z,2.00
2022-08-24T09:38:59.368Z,1.63
2022-08-24T09:41:42.584Z,1.73
2022-08-24T09:44:51.077Z,1.70
2022-08-24T09:48:04.121Z,1.60
2022-08-24T09:51:07.266Z,1.60
2022-08-24T09:53:56.024Z,1.98
2022-08-24T09:57:11.718Z,1.77
2022-08-24T09:59:43.962Z,1.52
2022-08-24T10:02:45.556Z,1.80
2022-08-24T10:05:54.491Z,1.77
2022-08-24T10:08:28.776Z,2.17
2022-08-24T10:11:19.680Z,1.67
2022-08-24T10:14:09.437Z,1.40
2022-08-24T10:17:10.347Z,1.63
2022-08-24T10:20:05.747Z,1.80
2022-08-24T10:23:05.844Z,1.58
2022-08-24T10:25:46.813Z,1.48
2022-08-24T10:28:36.859Z,1.98
2022-08-24T10:31:31.611Z,1.40
2022-08-24T10:34:46.558Z,1.90
2022-08-24T10:38:15.738Z,1.60
2022-08-24T10:41:15.230Z,1.90
2022-08-24T10:44:22.603Z,1.40
2022-08-24T10:47:00.225Z,1.60
2022-08-24T10:49:34.565Z,1.60
2022-08-24T10:52:47.762Z,1.70
2022-08-24T10:55:30.750Z,1.70
2022-08-24T10:58:04.805Z,1.50
2022-08-24T11:00:36.868Z,1.97
2022-08-24T11:03:12.340Z,1.85
2022-08-24T11:05:49.832Z,1.95
2022-08-24T11:08:28.001Z,1.67
2022-08-24T11:11:11.153Z,1.52
2022-08-24T11:14:19.319Z,1.60
2022-08-24T11:16:55.724Z,1.92
2022-08-24T11:19:35.415Z,1.77
2022-08-24T11:22:27.979Z,1.77
2022-08-24T11:25:04.769Z,1.48
2022-08-24T11:27:45.854Z,1.77
2022-08-24T11:30:20.205Z,1.48
2022-08-24T11:33:02.114Z,1.55
2022-08-24T11:35:33.418Z,1.88
2022-08-24T11:38:25.875Z,1.50
2022-08-24T11:41:09.781Z,1.90
2022-08-24T11:44:00.522Z,1.73
2022-08-24T11:46:53.521Z,1.85
2022-08-24T11:49:42.450Z,1.90
2022-08-24T11:52:42.622Z,1.50
2022-08-24T11:55:47.032Z,1.77
2022-08-24T11:58:34.369Z,1.55
2022-08-24T12:01:15.481Z,1.77
2022-08-24T12:04:11.789Z,1.65
2022-08-24T12:06:55.737Z,2.05
2022-08-24T12:09:40.377Z,2.10
2022-08-24T12:12:24.564Z,1.60
2022-08-24T12:15:01.788Z,1.80
2022-08-24T12:17:39.977Z,1.70
2022-08-24T12:20:29.457Z,2.17
2022-08-24T12:23:07.595Z,1.80
2022-08-24T12:25:59.356Z,2.03
2022-08-24T12:28:54.616Z,1.98
2022-08-24T12:31:43.395Z,1.75
2022-08-24T12:34:23.626Z,1.92
2022-08-24T12:37:10.775Z,1.80
2022-08-24T12:40:11.100Z,1.73
2022-08-24T12:42:54.565Z,1.77
2022-08-24T12:45:26.422Z,1.73
2022-08-24T12:48:16.145Z,1.85
2022-08-24T12:51:06.998Z,1.88
2022-08-24T12:54:07.587Z,1.77
2022-08-24T12:57:02.666Z,1.40
2022-08-24T12:59:57.724Z,1.63
2022-08-24T13:02:59.007Z,1.83
2022-08-24T13:05:46.533Z,1.80
2022-08-24T13:08:31.855Z,1.60
2022-08-24T13:11:08.211Z,1.88
2022-08-24T13:14:04.016Z,1.67
2022-08-24T13:16:56.849Z,1.35
2022-08-24T13:19:33.948Z,1.70
2022-08-24T13:22:11.236Z,1.92
2022-08-24T13:24:48.373Z,2.00
2022-08-24T13:27:19.627Z,1.58
2022-08-24T13:30:08.383Z,1.63
2022-08-24T13:32:46.184Z,1.77
2022-08-24T13:35:53.608Z,1.88
2022-08-24T13:38:33.930Z,1.65
2022-08-24T13:41:15.797Z,1.30
2022-08-24T13:44:14.702Z,2.10
2022-08-24T13:47:08.098Z,1.48
2022-08-24T13:50:02.000Z,1.90
2022-08-24T13:53:04.517Z,1.65
2022-08-24T13:55:53.272Z,1.60
2022-08-24T13:58:52.658Z,1.92
2022-08-24T14:01:38.979Z,1.45
2022-08-24T14:04:25.657Z,1.80
2022-08-24T14:07:09.116Z,2.00
2022-08-24T14:10:06.152Z,1.87
2022-08-24T14:12:49.949Z,1.88
2022-08-24T14:15:39.906Z,1.60
2022-08-24T14:18:22.283Z,1.40
2022-08-24T14:21:12.109Z,1.88
2022-08-24T14:24:00.703Z,1.50
2022-08-24T14:26:36.726Z,1.38
2022-08-24T14:29:19.854Z,1.33
2022-08-24T14:32:08.621Z,1.73
2022-08-24T14:34:51.449Z,1.50
2022-08-24T14:37:34.088Z,1.80
2022-08-24T14:40:29.595Z,1.88
2022-08-24T14:43:43.894Z,2.05
2022-08-24T14:46:33.617Z,1.60
2022-08-24T14:49:08.263Z,1.48
2022-08-24T14:52:19.105Z,1.97
2022-08-24T14:55:12.075Z,2.00
2022-08-24T14:58:02.945Z,1.98
2022-08-24T15:00:54.654Z,1.83
2022-08-24T15:04:03.806Z,1.83
2022-08-24T15:06:49.132Z,1.83
2022-08-24T15:09:27.353Z,1.58
2022-08-24T15:12:12.086Z,1.70
2022-08-24T15:14:58.278Z,2.00
2022-08-24T15:17:45.369Z,1.67
2022-08-24T15:20:32.503Z,1.77
2022-08-24T15:23:19.369Z,1.70
2022-08-24T15:26:11.227Z,1.70
2022-08-24T15:28:55.282Z,2.13
2022-08-24T15:34:02.726Z,1.63
2022-08-24T15:36:34.328Z,2.28
2022-08-24T15:39:06.264Z,1.67
2022-08-24T15:41:41.748Z,1.67
2022-08-24T15:44:27.979Z,1.92
2022-08-24T15:47:02.820Z,2.13
2022-08-24T15:49:45.026Z,1.85
2022-08-24T15:52:44.082Z,1.90
2022-08-24T15:55:37.988Z,1.85
2022-08-24T15:58:27.614Z,1.80
2022-08-24T16:01:30.077Z,1.73
2022-08-24T16:04:07.387Z,2.15
2022-08-24T16:06:49.814Z,1.60
2022-08-24T16:09:21.066Z,1.48
2022-08-24T16:12:32.695Z,1.60
2022-08-24T16:15:30.428Z,1.95
2022-08-24T16:18:01.879Z,1.70
2022-08-24T16:20:34.188Z,1.40
2022-08-24T16:23:12.671Z,1.65
2022-08-24T16:25:51.089Z,1.40
2022-08-24T16:28:22.610Z,1.52
2022-08-24T16:31:07.068Z,2.10
2022-08-24T16:33:45.432Z,1.38
2022-08-24T16:36:18.938Z,1.83
2022-08-24T16:38:51.297Z,1.92
2022-08-24T16:41:24.240Z,1.60
2022-08-24T16:43:55.568Z,1.65
2022-08-24T16:46:26.924Z,1.30
2022-08-24T16:48:58.905Z,1.70
2022-08-24T16:51:30.235Z,1.80
2022-08-24T16:54:01.720Z,1.60
2022-08-24T16:56:33.453Z,1.42
2022-08-24T16:59:04.801Z,2.08
2022-08-24T17:01:36.129Z,1.45
2022-08-24T17:04:07.603Z,1.90
2022-08-24T17:06:39.083Z,2.15
2022-08-24T17:09:11.076Z,1.60
2022-08-24T17:11:42.505Z,1.60
2022-08-24T17:14:15.141Z,1.90
2022-08-24T17:16:46.919Z,1.83
2022-08-24T17:19:20.453Z,1.85
2022-08-24T17:21:51.761Z,1.67
2022-08-24T17:24:23.697Z,1.50
2022-08-24T17:26:55.670Z,1.40
2022-08-24T17:29:27.319Z,1.33
2022-08-24T17:31:59.177Z,1.73
2022-08-24T17:34:32.078Z,1.70
2022-08-24T17:37:03.732Z,1.52
2022-08-24T17:39:35.513Z,1.65
2022-08-24T17:42:21.022Z,1.50
2022-08-24T17:44:58.730Z,1.50
2022-08-24T17:47:30.116Z,1.40
2022-08-24T17:50:06.058Z,1.48
2022-08-24T17:52:38.736Z,1.50
2022-08-24T17:55:12.442Z,1.80
2022-08-24T17:57:48.285Z,1.30
2022-08-24T18:00:20.398Z,1.65
2022-08-24T18:02:51.790Z,1.65
2022-08-24T18:05:23.173Z,1.13
2022-08-24T18:07:55.577Z,1.83
2022-08-24T18:10:29.456Z,1.38
2022-08-24T18:13:03.355Z,1.45
2022-08-24T18:15:36.346Z,1.73
2022-08-24T18:18:09.428Z,1.63
2022-08-24T18:20:41.720Z,1.60
2022-08-24T18:23:13.095Z,1.75
2022-08-24T18:25:51.221Z,1.52
2022-08-24T18:28:24.213Z,1.60
2022-08-24T18:30:56.297Z,1.70
2022-08-24T18:33:27.599Z,2.08
2022-08-24T18:35:59.079Z,1.70
2022-08-24T18:38:30.389Z,1.30
2022-08-24T18:41:02.002Z,1.60
2022-08-24T18:43:33.496Z,1.50
2022-08-24T18:46:05.850Z,1.70
2022-08-24T18:48:37.386Z,1.60
2022-08-24T18:51:10.317Z,2.03
2022-08-24T18:53:41.879Z,1.30
2022-08-24T18:56:13.188Z,1.48
2022-08-24T18:58:44.498Z,1.63
2022-08-24T19:01:16.097Z,1.58
2022-08-24T19:03:48.648Z,1.88
2022-08-24T19:06:20.051Z,1.63
2022-08-24T19:08:51.383Z,1.50
2022-08-24T19:11:23.977Z,1.48
2022-08-24T19:13:55.274Z,1.80
2022-08-24T19:16:32.127Z,1.55
2022-08-24T19:19:04.954Z,1.90
2022-08-24T19:21:37.073Z,1.95
2022-08-24T19:24:08.858Z,1.40
2022-08-24T19:26:40.442Z,1.55
2022-08-24T19:29:11.892Z,1.58
2022-08-24T19:31:43.342Z,1.73
2022-08-24T19:34:14.864Z,2.13
2022-08-24T19:36:46.571Z,1.92
2022-08-24T19:39:18.250Z,1.80
2022-08-24T19:41:54.916Z,2.20
2022-08-24T19:44:51.794Z,2.20
2022-08-24T19:47:24.121Z,1.88
2022-08-24T19:49:55.502Z,1.83
2022-08-24T19:52:30.993Z,1.60
2022-08-24T19:55:03.981Z,1.70
2022-08-24T19:57:42.051Z,1.63
2022-08-24T20:00:21.373Z,2.42
2022-08-24T20:02:55.834Z,1.90
2022-08-24T20:05:28.353Z,1.77
2022-08-24T20:08:00.586Z,1.70
2022-08-24T20:10:33.876Z,1.52
2022-08-24T20:13:05.280Z,2.03
2022-08-24T20:15:36.839Z,1.73
2022-08-24T20:18:08.176Z,1.30
2022-08-24T20:20:39.481Z,2.20
2022-08-24T20:23:10.793Z,1.63
2022-08-24T20:25:42.135Z,2.00
2022-08-24T20:28:33.683Z,1.70
2022-08-24T20:31:08.164Z,1.75
2022-08-24T20:33:39.549Z,1.75
2022-08-24T20:36:43.212Z,1.60
2022-08-24T20:39:18.012Z,2.00
2022-08-24T20:41:49.960Z,1.87
2022-08-24T20:44:22.054Z,1.98
2022-08-24T20:46:55.004Z,2.22
2022-08-24T20:49:26.996Z,1.90
2022-08-24T20:52:00.284Z,1.80
2022-08-24T20:54:31.726Z,1.60
2022-08-24T20:57:04.856Z,2.10
2022-08-24T20:59:36.234Z,1.90
2022-08-24T21:02:07.764Z,2.00
2022-08-24T21:04:39.087Z,1.80
2022-08-24T21:07:12.146Z,2.63
2022-08-24T21:09:43.446Z,2.08
2022-08-24T21:12:15.878Z,1.92
2022-08-24T21:14:47.272Z,2.03
2022-08-24T21:17:19.196Z,1.98
2022-08-24T21:19:50.680Z,2.50
2022-08-24T21:22:22.050Z,1.90
2022-08-24T21:24:53.346Z,1.98
2022-08-24T21:27:24.894Z,2.13
2022-08-24T21:29:56.426Z,2.58
2022-08-24T21:32:46.058Z,2.20
2022-08-24T21:35:17.440Z,2.20
2022-08-24T21:37:50.067Z,2.15
2022-08-24T21:40:21.842Z,2.00
2022-08-24T21:42:53.334Z,2.13
2022-08-24T21:45:25.444Z,2.20
2022-08-24T21:47:56.741Z,2.50
2022-08-24T21:50:28.493Z,2.22
2022-08-24T21:52:59.946Z,2.20
2022-08-24T21:55:31.410Z,2.45
2022-08-24T21:58:02.923Z,1.90
2022-08-24T22:00:35.539Z,1.90
2022-08-24T22:03:08.533Z,2.25
2022-08-24T22:05:40.347Z,2.90
2022-08-24T22:08:11.795Z,2.47
2022-08-24T22:10:43.216Z,2.28
2022-08-24T22:13:16.121Z,2.22
2022-08-24T22:15:47.468Z,2.05
2022-08-24T22:18:18.824Z,2.40
2022-08-24T22:20:50.134Z,2.42
2022-08-24T22:23:21.524Z,2.35
2022-08-24T22:25:54.001Z,3.10
2022-08-24T22:28:25.328Z,2.53
2022-08-24T22:30:56.802Z,2.05
2022-08-24T22:33:28.619Z,2.35
2022-08-24T22:35:59.933Z,2.25
2022-08-24T22:38:31.239Z,2.42
2022-08-24T22:41:02.802Z,2.13
2022-08-24T22:43:52.896Z,2.80
2022-08-24T22:46:25.965Z,3.22
2022-08-24T22:48:57.450Z,2.78
2022-08-24T22:51:29.454Z,2.15
2022-08-24T22:54:01.012Z,2.40
2022-08-24T22:56:35.814Z,2.75
2022-08-24T22:59:08.610Z,2.47
2022-08-24T23:01:41.813Z,3.10
2022-08-24T23:04:17.758Z,2.90
2022-08-24T23:06:49.678Z,2.60
2022-08-24T23:09:21.662Z,2.30
2022-08-24T23:11:53.573Z,3.03
2022-08-24T23:14:25.306Z,3.22
2022-08-24T23:16:56.665Z,2.63
2022-08-24T23:19:47.212Z,2.45
2022-08-24T23:22:19.888Z,2.70
2022-08-24T23:24:51.223Z,2.57
2022-08-24T23:27:22.934Z,2.63
2022-08-24T23:29:54.724Z,2.80
2022-08-24T23:32:27.208Z,2.90
2022-08-24T23:34:58.879Z,2.57
2022-08-24T23:37:30.529Z,2.73
2022-08-24T23:40:02.118Z,2.88
2022-08-24T23:42:33.538Z,3.00
2022-08-24T23:45:05.947Z,3.67
2022-08-24T23:50:12.073Z,2.80
2022-08-24T23:52:43.446Z,3.67
2022-08-24T23:55:20.101Z,3.17
2022-08-24T23:57:52.867Z,2.90
